createdAt,value
2022-12-27T00:00:20.427Z,86.23
2022-12-27T00:02:47.422Z,85.84
2022-12-27T00:05:15.569Z,87.11
2022-12-27T00:07:44.250Z,87.74
2022-12-27T00:10:12.111Z,87.32
2022-12-27T00:12:44.014Z,87.19
2022-12-27T00:15:11.108Z,87.91
2022-12-27T00:17:40.991Z,87.52
2022-12-27T00:20:11.749Z,87.38
2022-12-27T00:22:40.154Z,86.61
2022-12-27T00:25:08.040Z,85.96
2022-12-27T00:27:37.539Z,85.58
2022-12-27T00:30:05.957Z,86.77
2022-12-27T00:32:33.049Z,87.11
2022-12-27T00:35:00.176Z,87.89
2022-12-27T00:37:27.414Z,87.86
2022-12-27T00:39:54.348Z,87.53
2022-12-27T00:42:23.402Z,87.89
2022-12-27T00:44:50.597Z,87.94
2022-12-27T00:47:17.516Z,88.21
2022-12-27T00:49:47.390Z,88.31
2022-12-27T00:52:14.477Z,87.97
2022-12-27T00:54:44.111Z,87.42
2022-12-27T00:57:11.096Z,86.99
2022-12-27T00:59:37.932Z,87.35
2022-12-27T01:02:04.958Z,86.93
2022-12-27T01:04:32.056Z,87.81
2022-12-27T01:07:02.334Z,86.87
2022-12-27T01:09:29.339Z,86.77
2022-12-27T01:11:56.341Z,86.31
2022-12-27T01:14:25.535Z,86.79
2022-12-27T01:16:52.508Z,87.17
2022-12-27T01:19:19.564Z,86.70
2022-12-27T01:21:46.580Z,86.41
2022-12-27T01:24:13.541Z,86.57
2022-12-27T01:26:43.025Z,86.99
2022-12-27T01:29:13.089Z,86.89
2022-12-27T01:31:40.324Z,86.21
2022-12-27T01:34:09.466Z,86.01
2022-12-27T01:36:36.479Z,86.17
2022-12-27T01:39:04.017Z,86.04
2022-12-27T01:41:54.175Z,86.56
2022-12-27T01:44:39.324Z,86.92
2022-12-27T01:47:46.182Z,86.29
2022-12-27T01:50:28.591Z,87.30
2022-12-27T01:52:59.822Z,86.83
2022-12-27T01:55:36.055Z,86.16
2022-12-27T01:58:11.313Z,86.05
2022-12-27T02:00:40.211Z,86.76
2022-12-27T02:03:10.827Z,86.90
2022-12-27T02:05:41.719Z,87.54
2022-12-27T02:08:29.091Z,88.42
2022-12-27T02:10:57.288Z,88.52
2022-12-27T02:13:29.295Z,87.20
2022-12-27T02:15:56.358Z,86.93
2022-12-27T02:18:25.799Z,86.69
2022-12-27T02:21:26.200Z,87.72
2022-12-27T02:24:33.198Z,88.06
2022-12-27T02:27:33.653Z,87.38
2022-12-27T02:30:07.624Z,87.13
2022-12-27T02:32:55.090Z,86.86
2022-12-27T02:35:33.694Z,87.44
2022-12-27T02:38:18.138Z,87.35
2022-12-27T02:41:05.400Z,86.56
2022-12-27T02:43:51.966Z,86.55
2022-12-27T02:46:43.022Z,86.81
2022-12-27T02:49:52.542Z,87.17
2022-12-27T02:53:04.150Z,87.76
2022-12-27T02:56:36.805Z,88.80
2022-12-27T02:59:15.602Z,87.93
2022-12-27T03:02:10.099Z,87.60
2022-12-27T03:05:16.147Z,88.82
2022-12-27T03:08:24.017Z,88.30
2022-12-27T03:11:18.182Z,88.16
2022-12-27T03:14:20.743Z,87.30
2022-12-27T03:16:56.240Z,88.37
2022-12-27T03:19:48.363Z,87.98
2022-12-27T03:22:40.292Z,87.22
2022-12-27T03:25:26.329Z,88.03
2022-12-27T03:28:20.685Z,87.63
2022-12-27T03:31:13.968Z,87.43
2022-12-27T03:33:43.223Z,86.95
2022-12-27T03:36:40.100Z,86.48
2022-12-27T03:39:11.485Z,87.23
2022-12-27T03:42:20.649Z,86.86
2022-12-27T03:44:50.114Z,87.59
2022-12-27T03:47:39.709Z,87.45
2022-12-27T03:50:25.401Z,87.92
2022-12-27T03:52:58.395Z,87.24
2022-12-27T03:55:33.444Z,87.26
2022-12-27T03:58:00.889Z,86.98
2022-12-27T04:00:28.057Z,87.13
2022-12-27T04:02:57.819Z,87.99
2022-12-27T04:05:29.302Z,86.83
2022-12-27T04:08:14.602Z,87.46
2022-12-27T04:11:00.164Z,87.03
2022-12-27T04:13:45.856Z,86.77
2022-12-27T04:16:31.043Z,87.51
2022-12-27T04:19:16.810Z,87.40
2022-12-27T04:22:01.999Z,87.50
2022-12-27T04:24:47.300Z,86.77
2022-12-27T04:27:32.730Z,86.22
2022-12-27T04:30:18.010Z,86.93
2022-12-27T04:33:06.519Z,88.68
2022-12-27T04:35:36.034Z,87.47
2022-12-27T04:38:05.484Z,86.80
2022-12-27T04:40:50.754Z,86.21
2022-12-27T04:43:36.122Z,86.17
2022-12-27T04:46:21.789Z,86.73
2022-12-27T04:49:07.017Z,86.80
2022-12-27T04:51:52.451Z,86.60
2022-12-27T04:54:43.814Z,86.68
2022-12-27T04:57:10.810Z,87.57
2022-12-27T04:59:58.555Z,85.94
2022-12-27T05:02:30.393Z,86.24
2022-12-27T05:05:00.479Z,87.35
2022-12-27T05:07:48.293Z,87.32
2022-12-27T05:10:38.469Z,88.37
2022-12-27T05:13:30.825Z,88.76
2022-12-27T05:15:58.148Z,88.67
2022-12-27T05:18:25.106Z,88.35
2022-12-27T05:20:54.725Z,88.55
2022-12-27T05:23:42.391Z,89.25
2022-12-27T05:26:09.613Z,89.36
2022-12-27T05:28:36.460Z,88.61
2022-12-27T05:31:03.425Z,88.84
2022-12-27T05:33:33.385Z,88.34
2022-12-27T05:36:00.882Z,89.02
2022-12-27T05:38:29.999Z,88.76
2022-12-27T05:41:04.152Z,87.95
2022-12-27T05:43:35.098Z,87.41
2022-12-27T05:46:14.258Z,87.94
2022-12-27T05:48:42.007Z,88.13
2022-12-27T05:51:12.635Z,87.56
2022-12-27T05:53:40.361Z,87.58
2022-12-27T05:56:11.342Z,87.72
2022-12-27T05:58:38.314Z,87.64
2022-12-27T06:01:10.563Z,88.16
2022-12-27T06:03:38.038Z,88.59
2022-12-27T06:06:08.469Z,88.08
2022-12-27T06:08:36.734Z,89.27
2022-12-27T06:11:10.449Z,88.73
2022-12-27T06:13:41.948Z,89.15
2022-12-27T06:16:12.275Z,88.84
2022-12-27T06:18:41.480Z,88.25
2022-12-27T06:21:17.619Z,87.89
2022-12-27T06:23:45.895Z,87.92
2022-12-27T06:26:28.073Z,88.16
2022-12-27T06:28:57.303Z,88.60
2022-12-27T06:31:27.892Z,88.83
2022-12-27T06:33:57.782Z,88.43
2022-12-27T06:36:32.634Z,88.13
2022-12-27T06:39:00.886Z,88.75
2022-12-27T06:41:27.886Z,89.12
2022-12-27T06:44:00.939Z,88.33
2022-12-27T06:46:30.083Z,88.66
2022-12-27T06:48:57.582Z,88.64
2022-12-27T06:51:26.569Z,88.78
2022-12-27T06:53:53.531Z,88.41
2022-12-27T06:56:25.077Z,89.09
2022-12-27T06:58:52.193Z,88.04
2022-12-27T07:01:27.394Z,87.99
2022-12-27T07:03:59.526Z,88.60
2022-12-27T07:06:36.024Z,88.82
2022-12-27T07:09:06.066Z,88.61
2022-12-27T07:11:39.442Z,87.69
2022-12-27T07:14:10.263Z,88.22
2022-12-27T07:16:37.599Z,88.52
2022-12-27T07:19:07.128Z,88.72
2022-12-27T07:21:37.152Z,87.92
2022-12-27T07:24:09.322Z,87.21
2022-12-27T07:26:36.275Z,86.97
2022-12-27T07:29:05.719Z,87.06
2022-12-27T07:31:35.783Z,87.69
2022-12-27T07:34:06.386Z,87.44
2022-12-27T07:36:37.549Z,86.72
2022-12-27T07:39:05.841Z,86.63
2022-12-27T07:41:35.876Z,85.77
2022-12-27T07:44:03.921Z,85.03
2022-12-27T07:46:31.196Z,86.59
2022-12-27T07:48:58.743Z,85.40
2022-12-27T07:51:27.028Z,85.76
2022-12-27T07:53:54.508Z,85.91
2022-12-27T07:56:27.325Z,86.21
2022-12-27T07:58:57.335Z,85.42
2022-12-27T08:01:28.066Z,84.59
2022-12-27T08:03:55.563Z,83.85
2022-12-27T08:06:23.903Z,84.09
2022-12-27T08:08:55.584Z,84.71
2022-12-27T08:11:26.714Z,83.41
2022-12-27T08:13:53.935Z,85.02
2022-12-27T08:16:24.911Z,84.97
2022-12-27T08:18:56.334Z,85.33
2022-12-27T08:21:26.304Z,85.42
2022-12-27T08:24:02.212Z,84.68
2022-12-27T08:26:32.124Z,85.04
2022-12-27T08:29:01.194Z,85.27
2022-12-27T08:31:30.314Z,84.71
2022-12-27T08:33:59.623Z,83.42
2022-12-27T08:39:13.606Z,84.21
2022-12-27T08:41:40.673Z,84.45
2022-12-27T08:44:12.575Z,84.10
2022-12-27T08:46:39.714Z,83.53
2022-12-27T08:49:06.734Z,84.08
2022-12-27T08:51:41.068Z,83.69
2022-12-27T08:54:11.550Z,83.77
2022-12-27T08:56:38.495Z,83.27
2022-12-27T08:59:05.466Z,82.48
2022-12-27T09:01:32.862Z,81.36
2022-12-27T09:03:59.836Z,78.66
2022-12-27T09:06:28.889Z,75.20
2022-12-27T09:08:59.683Z,77.94
2022-12-27T09:11:30.656Z,78.38
2022-12-27T09:14:01.394Z,79.56
2022-12-27T09:16:29.865Z,80.41
2022-12-27T09:18:59.254Z,81.64
2022-12-27T09:21:29.207Z,82.65
2022-12-27T09:23:59.119Z,82.86
2022-12-27T09:26:29.525Z,83.70
2022-12-27T09:29:00.080Z,83.37
2022-12-27T09:31:28.304Z,83.16
2022-12-27T09:33:55.822Z,82.78
2022-12-27T09:36:30.809Z,81.44
2022-12-27T09:38:59.055Z,78.58
2022-12-27T09:45:17.870Z,72.10
2022-12-27T09:48:09.424Z,64.14
2022-12-27T09:50:55.874Z,60.50
2022-12-27T09:53:48.701Z,58.21
2022-12-27T09:56:35.693Z,59.01
2022-12-27T09:59:24.115Z,57.89
2022-12-27T10:01:51.653Z,57.67
2022-12-27T10:04:21.712Z,56.03
2022-12-27T10:07:03.797Z,53.42
2022-12-27T10:10:29.433Z,51.92
2022-12-27T10:13:23.705Z,50.26
2022-12-27T10:16:18.013Z,48.47
2022-12-27T10:19:13.359Z,46.62
2022-12-27T10:22:17.488Z,48.29
2022-12-27T10:24:57.337Z,47.02
2022-12-27T10:27:31.939Z,49.33
2022-12-27T10:30:00.316Z,50.32
2022-12-27T10:32:30.273Z,50.83
2022-12-27T10:35:01.326Z,55.27
2022-12-27T10:37:28.741Z,58.64
2022-12-27T10:40:32.487Z,61.44
2022-12-27T10:43:18.444Z,63.17
2022-12-27T10:45:45.593Z,62.70
2022-12-27T10:48:25.120Z,65.30
2022-12-27T10:50:59.355Z,62.59
2022-12-27T10:53:40.609Z,60.36
2022-12-27T10:56:17.500Z,61.56
2022-12-27T10:58:58.862Z,58.96
2022-12-27T11:01:32.469Z,60.00
2022-12-27T11:04:24.087Z,59.63
2022-12-27T11:07:00.117Z,61.87
2022-12-27T11:09:41.512Z,60.42
2022-12-27T11:12:18.620Z,60.76
2022-12-27T11:15:25.080Z,58.34
2022-12-27T11:18:02.260Z,52.16
2022-12-27T11:20:49.740Z,52.45
2022-12-27T11:23:22.647Z,52.24
2022-12-27T11:25:58.220Z,51.95
2022-12-27T11:28:50.923Z,49.47
2022-12-27T11:31:35.868Z,50.55
2022-12-27T11:34:16.012Z,46.40
2022-12-27T11:36:48.306Z,47.21
2022-12-27T11:39:43.034Z,50.02
2022-12-27T11:42:38.482Z,52.81
2022-12-27T11:45:49.603Z,57.82
2022-12-27T11:48:45.265Z,55.42
2022-12-27T11:51:40.236Z,54.77
2022-12-27T11:54:57.129Z,54.19
2022-12-27T11:57:42.598Z,54.16
2022-12-27T12:00:23.651Z,52.08
2022-12-27T12:03:27.898Z,50.16
2022-12-27T12:06:15.869Z,47.92
2022-12-27T12:09:10.391Z,48.83
2022-12-27T12:12:01.102Z,50.18
2022-12-27T12:14:44.248Z,50.14
2022-12-27T12:17:41.769Z,52.21
2022-12-27T12:20:50.336Z,52.17
2022-12-27T12:23:26.742Z,51.47
2022-12-27T12:26:16.104Z,53.89
2022-12-27T12:29:06.517Z,55.56
2022-12-27T12:31:55.904Z,57.55
2022-12-27T12:34:56.575Z,58.61
2022-12-27T12:38:00.638Z,60.02
2022-12-27T12:41:11.032Z,58.29
2022-12-27T12:43:43.667Z,57.99
2022-12-27T12:46:46.069Z,59.16
2022-12-27T12:49:32.722Z,56.89
2022-12-27T12:52:24.595Z,52.07
2022-12-27T12:55:19.953Z,48.96
2022-12-27T12:58:08.022Z,46.79
2022-12-27T13:00:49.637Z,43.78
2022-12-27T13:04:01.960Z,42.86
2022-12-27T13:07:11.862Z,45.89
2022-12-27T13:10:17.001Z,49.39
2022-12-27T13:13:20.327Z,56.19
2022-12-27T13:16:21.741Z,57.59
2022-12-27T13:19:14.694Z,59.01
2022-12-27T13:22:19.391Z,60.03
2022-12-27T13:25:21.055Z,59.86
2022-12-27T13:28:13.993Z,59.96
2022-12-27T13:31:09.674Z,62.17
2022-12-27T13:34:16.295Z,62.84
2022-12-27T13:37:24.853Z,65.04
2022-12-27T13:40:25.883Z,65.67
2022-12-27T13:43:40.834Z,65.92
2022-12-27T13:46:33.168Z,65.93
2022-12-27T13:49:40.571Z,65.46
2022-12-27T13:52:59.731Z,66.39
2022-12-27T13:55:45.146Z,66.78
2022-12-27T13:58:20.825Z,66.78
2022-12-27T14:01:24.851Z,66.31
2022-12-27T14:04:28.728Z,68.19
2022-12-27T14:07:21.795Z,67.93
2022-12-27T14:10:15.292Z,67.78
2022-12-27T14:12:48.062Z,68.14
2022-12-27T14:15:22.738Z,68.23
2022-12-27T14:18:08.379Z,69.18
2022-12-27T14:20:51.479Z,69.07
2022-12-27T14:23:56.005Z,68.43
2022-12-27T14:26:48.437Z,69.91
2022-12-27T14:29:45.131Z,72.13
2022-12-27T14:32:33.613Z,72.55
2022-12-27T14:35:47.086Z,71.84
2022-12-27T14:38:39.756Z,73.58
2022-12-27T14:41:29.350Z,74.02
2022-12-27T14:44:29.568Z,74.59
2022-12-27T14:47:45.750Z,74.79
2022-12-27T14:50:40.051Z,75.11
2022-12-27T14:53:37.024Z,77.31
2022-12-27T14:56:24.988Z,77.54
2022-12-27T14:59:09.642Z,78.44
2022-12-27T15:02:20.631Z,78.55
2022-12-27T15:05:23.575Z,79.03
2022-12-27T15:08:12.110Z,79.80
2022-12-27T15:10:54.001Z,78.15
2022-12-27T15:13:54.806Z,78.51
2022-12-27T15:16:52.634Z,81.37
2022-12-27T15:19:59.556Z,81.85
2022-12-27T15:22:38.227Z,82.22
2022-12-27T15:25:38.372Z,82.41
2022-12-27T15:28:52.542Z,82.02
2022-12-27T15:31:19.297Z,82.07
2022-12-27T15:34:36.302Z,82.41
2022-12-27T15:37:03.542Z,82.60
2022-12-27T15:39:47.911Z,82.32
2022-12-27T15:42:44.825Z,83.52
2022-12-27T15:45:48.600Z,84.49
2022-12-27T15:48:51.589Z,84.24
2022-12-27T15:51:45.810Z,84.49
2022-12-27T15:54:30.625Z,84.60
2022-12-27T15:57:03.172Z,86.03
2022-12-27T15:59:48.144Z,85.46
2022-12-27T16:02:34.123Z,85.89
2022-12-27T16:05:01.108Z,87.16
2022-12-27T16:07:52.558Z,86.00
2022-12-27T16:10:31.962Z,85.78
2022-12-27T16:13:06.893Z,87.25
2022-12-27T16:15:55.439Z,85.98
2022-12-27T16:18:22.280Z,86.28
2022-12-27T16:21:27.595Z,86.11
2022-12-27T16:24:03.627Z,87.53
2022-12-27T16:26:35.783Z,87.30
2022-12-27T16:29:13.537Z,87.19
2022-12-27T16:31:49.530Z,86.71
2022-12-27T16:34:31.750Z,88.88
2022-12-27T16:37:00.774Z,88.35
2022-12-27T16:39:51.811Z,87.68
2022-12-27T16:42:28.576Z,87.60
2022-12-27T16:45:23.127Z,88.27
2022-12-27T16:48:11.024Z,87.57
2022-12-27T16:51:23.442Z,87.64
2022-12-27T16:54:16.716Z,87.88
2022-12-27T16:56:48.035Z,86.82
2022-12-27T17:00:07.417Z,88.40
2022-12-27T17:02:54.490Z,89.50
2022-12-27T17:05:36.366Z,89.18
2022-12-27T17:08:30.585Z,88.08
2022-12-27T17:11:28.285Z,88.99
2022-12-27T17:14:03.147Z,89.24
2022-12-27T17:16:44.265Z,89.32
2022-12-27T17:19:45.925Z,88.97
2022-12-27T17:22:15.944Z,88.38
2022-12-27T17:24:56.059Z,88.68
2022-12-27T17:27:38.801Z,89.73
2022-12-27T17:30:24.644Z,90.86
2022-12-27T17:33:26.274Z,89.89
2022-12-27T17:36:26.390Z,89.80
2022-12-27T17:39:08.710Z,89.69
2022-12-27T17:42:31.252Z,89.27
2022-12-27T17:45:38.281Z,88.41
2022-12-27T17:48:29.331Z,86.44
2022-12-27T17:51:05.384Z,87.22
2022-12-27T17:53:53.145Z,87.64
2022-12-27T17:57:02.574Z,87.16
2022-12-27T17:59:34.851Z,86.54
2022-12-27T18:02:12.408Z,85.79
2022-12-27T18:04:48.129Z,86.19
2022-12-27T18:07:22.905Z,86.81
2022-12-27T18:09:53.723Z,88.04
2022-12-27T18:12:54.020Z,87.88
2022-12-27T18:15:26.910Z,86.81
2022-12-27T18:18:09.788Z,86.51
2022-12-27T18:20:42.160Z,87.23
2022-12-27T18:23:17.667Z,86.29
2022-12-27T18:25:44.490Z,86.72
2022-12-27T18:28:49.125Z,84.91
2022-12-27T18:31:35.902Z,84.59
2022-12-27T18:34:19.144Z,86.32
2022-12-27T18:36:58.758Z,85.57
2022-12-27T18:39:29.904Z,85.98
2022-12-27T18:41:58.381Z,87.03
2022-12-27T18:44:54.120Z,86.35
2022-12-27T18:47:27.155Z,85.32
2022-12-27T18:50:03.337Z,86.55
2022-12-27T18:52:34.816Z,86.94
2022-12-27T18:55:28.967Z,86.65
2022-12-27T18:58:20.802Z,88.36
2022-12-27T19:00:59.087Z,88.76
2022-12-27T19:03:27.254Z,88.27
2022-12-27T19:06:04.743Z,87.44
2022-12-27T19:08:52.765Z,87.78
2022-12-27T19:11:29.428Z,88.72
2022-12-27T19:14:01.177Z,88.23
2022-12-27T19:16:34.371Z,87.99
2022-12-27T19:19:20.428Z,87.48
2022-12-27T19:21:49.581Z,88.96
2022-12-27T19:24:28.813Z,88.42
2022-12-27T19:27:00.735Z,88.16
2022-12-27T19:29:36.534Z,88.99
2022-12-27T19:32:11.907Z,91.27
2022-12-27T19:34:50.614Z,90.74
2022-12-27T19:37:18.177Z,90.41
2022-12-27T19:39:47.843Z,91.17
2022-12-27T19:42:30.808Z,91.67
2022-12-27T19:44:57.998Z,92.31
2022-12-27T19:47:29.002Z,92.36
2022-12-27T19:49:56.026Z,92.26
2022-12-27T19:52:27.106Z,92.86
2022-12-27T19:55:08.063Z,94.08
2022-12-27T19:57:35.121Z,93.74
2022-12-27T20:00:05.366Z,93.58
2022-12-27T20:02:38.676Z,94.58
2022-12-27T20:05:06.765Z,94.44
2022-12-27T20:07:39.394Z,93.94
2022-12-27T20:10:07.334Z,94.41
2022-12-27T20:12:38.747Z,94.12
2022-12-27T20:15:06.629Z,93.33
2022-12-27T20:17:41.051Z,93.56
2022-12-27T20:20:14.847Z,93.83
2022-12-27T20:22:42.596Z,94.21
2022-12-27T20:25:11.543Z,94.13
2022-12-27T20:27:42.937Z,94.39
2022-12-27T20:30:11.298Z,94.76
2022-12-27T20:32:39.966Z,94.95
2022-12-27T20:35:11.173Z,95.25
2022-12-27T20:37:39.458Z,95.31
2022-12-27T20:40:13.847Z,95.87
2022-12-27T20:42:41.384Z,95.83
2022-12-27T20:45:11.795Z,95.57
2022-12-27T20:47:40.733Z,95.15
2022-12-27T20:50:10.740Z,94.71
2022-12-27T20:52:39.156Z,94.36
2022-12-27T20:55:12.263Z,95.27
2022-12-27T20:57:39.739Z,94.94
2022-12-27T21:00:13.629Z,95.33
2022-12-27T21:02:43.062Z,95.30
2022-12-27T21:05:12.764Z,96.17
2022-12-27T21:07:39.692Z,95.44
2022-12-27T21:10:08.760Z,94.43
2022-12-27T21:12:42.401Z,94.72
2022-12-27T21:15:11.656Z,95.03
2022-12-27T21:17:39.209Z,95.55
2022-12-27T21:20:11.161Z,94.75
2022-12-27T21:22:40.339Z,95.44
2022-12-27T21:25:08.797Z,93.85
2022-12-27T21:27:36.789Z,94.69
2022-12-27T21:30:08.491Z,94.31
2022-12-27T21:32:37.004Z,94.41
2022-12-27T21:35:05.360Z,94.78
2022-12-27T21:37:32.804Z,95.54
2022-12-27T21:40:02.051Z,94.41
2022-12-27T21:42:28.938Z,94.17
2022-12-27T21:44:55.902Z,94.93
2022-12-27T21:47:23.412Z,94.32
2022-12-27T21:49:52.825Z,94.35
2022-12-27T21:52:19.717Z,92.90
2022-12-27T21:54:46.535Z,91.96
2022-12-27T21:57:13.451Z,91.75
2022-12-27T21:59:40.286Z,92.27
2022-12-27T22:02:08.739Z,92.00
2022-12-27T22:04:35.726Z,91.84
2022-12-27T22:07:02.653Z,90.88
2022-12-27T22:09:29.616Z,90.96
2022-12-27T22:11:56.819Z,91.63
2022-12-27T22:14:28.401Z,90.80
2022-12-27T22:17:00.635Z,90.46
2022-12-27T22:19:27.985Z,90.67
2022-12-27T22:21:54.976Z,91.28
2022-12-27T22:24:21.840Z,89.93
2022-12-27T22:26:50.132Z,90.89
2022-12-27T22:29:17.900Z,90.81
2022-12-27T22:31:45.073Z,91.01
2022-12-27T22:34:14.561Z,90.95
2022-12-27T22:36:41.431Z,91.10
2022-12-27T22:39:08.373Z,91.35
2022-12-27T22:41:39.100Z,91.67
2022-12-27T22:44:11.184Z,90.60
2022-12-27T22:47:06.869Z,90.19
2022-12-27T22:49:26.193Z,91.69
2022-12-27T22:51:53.650Z,90.02
2022-12-27T22:54:20.649Z,90.80
2022-12-27T22:57:10.860Z,90.25
2022-12-27T22:59:37.902Z,90.73
2022-12-27T23:02:05.209Z,90.52
2022-12-27T23:04:34.485Z,90.87
2022-12-27T23:07:02.185Z,89.91
2022-12-27T23:09:29.391Z,89.10
2022-12-27T23:11:56.606Z,89.04
2022-12-27T23:14:26.110Z,88.75
2022-12-27T23:16:53.104Z,88.92
2022-12-27T23:19:24.351Z,89.04
2022-12-27T23:21:53.593Z,89.31
2022-12-27T23:24:22.977Z,87.96
2022-12-27T23:26:49.877Z,88.19
2022-12-27T23:29:17.002Z,87.75
2022-12-27T23:31:54.944Z,86.42
2022-12-27T23:34:28.728Z,85.77
2022-12-27T23:36:58.052Z,86.08
2022-12-27T23:39:27.580Z,85.17
2022-12-27T23:41:55.240Z,85.43
2022-12-27T23:44:34.399Z,83.83
2022-12-27T23:47:07.247Z,84.76
2022-12-27T23:49:34.541Z,85.13
2022-12-27T23:52:04.196Z,84.74
2022-12-27T23:54:31.183Z,84.09
2022-12-27T23:57:22.274Z,84.36
2022-12-27T23:59:47.502Z,84.37
